createdAt,value
2019-01-06T00:01:57.378Z,8.20
2019-01-06T00:12:29.117Z,8.10
2019-01-06T00:22:53.033Z,7.80
2019-01-06T00:33:14.338Z,7.80
2019-01-06T00:43:37.026Z,7.60
2019-01-06T00:54:08.775Z,7.60
2019-01-06T01:04:30.597Z,7.60
2019-01-06T01:14:42.474Z,7.60
2019-01-06T01:25:04.210Z,7.60
2019-01-06T01:35:25.840Z,7.50
2019-01-06T01:45:49.112Z,7.50
2019-01-06T01:56:04.199Z,7.50
2019-01-06T02:06:27.298Z,7.50
2019-01-06T02:16:48.566Z,7.40
2019-01-06T02:27:23.466Z,7.40
2019-01-06T02:37:46.125Z,7.40
2019-01-06T02:48:18.119Z,7.30
2019-01-06T02:58:39.786Z,7.10
2019-01-06T03:08:53.822Z,7.10
2019-01-06T03:19:28.734Z,7.00
2019-01-06T03:29:50.301Z,7.10
2019-01-06T03:40:26.485Z,7.10
2019-01-06T03:50:47.817Z,7.10
2019-01-06T04:01:08.314Z,7.10
2019-01-06T04:11:40.367Z,7.20
2019-01-06T04:22:01.962Z,7.20
2019-01-06T04:32:34.607Z,7.20
2019-01-06T04:42:52.181Z,7.20
2019-01-06T04:53:13.606Z,7.20
2019-01-06T05:03:35.314Z,7.30
2019-01-06T05:14:07.322Z,7.30
2019-01-06T05:24:35.855Z,7.30
2019-01-06T05:34:51.000Z,7.30
2019-01-06T05:45:16.782Z,7.30
2019-01-06T05:55:31.674Z,7.30
2019-01-06T06:05:53.217Z,7.30
2019-01-06T06:16:15.085Z,7.30
2019-01-06T06:26:36.781Z,7.30
2019-01-06T06:36:53.865Z,7.30
2019-01-06T06:47:15.212Z,7.40
2019-01-06T06:58:17.501Z,7.50
2019-01-06T07:08:43.318Z,7.50
2019-01-06T07:19:18.316Z,7.50
2019-01-06T07:29:53.078Z,7.50
2019-01-06T07:40:14.498Z,7.40
2019-01-06T07:50:37.169Z,7.50
2019-01-06T08:00:54.210Z,7.40
2019-01-06T08:11:26.405Z,7.30
2019-01-06T08:21:56.506Z,7.30
2019-01-06T08:32:19.161Z,7.30
2019-01-06T08:42:41.818Z,7.30
2019-01-06T08:53:04.488Z,7.30
2019-01-06T09:03:26.173Z,7.20
2019-01-06T09:13:47.906Z,7.20
2019-01-06T09:24:04.386Z,7.30
2019-01-06T09:34:33.215Z,7.20
2019-01-06T09:44:56.014Z,7.20
2019-01-06T09:55:30.555Z,7.40
2019-01-06T10:06:03.734Z,7.40
2019-01-06T10:16:42.050Z,7.50
2019-01-06T10:27:03.410Z,7.50
2019-01-06T10:37:25.286Z,7.50
2019-01-06T10:47:57.247Z,7.50
2019-01-06T10:58:18.914Z,7.60
2019-01-06T11:08:40.748Z,7.80
2019-01-06T11:19:02.394Z,7.90
2019-01-06T11:29:23.950Z,7.80
2019-01-06T11:39:45.482Z,7.80
2019-01-06T11:50:17.939Z,7.80
2019-01-06T12:00:33.057Z,7.70
2019-01-06T12:10:55.747Z,7.70
2019-01-06T12:21:24.750Z,7.70
2019-01-06T12:31:46.247Z,7.80
2019-01-06T12:42:18.298Z,8.00
2019-01-06T12:52:39.597Z,8.10
2019-01-06T13:03:12.003Z,8.10
2019-01-06T13:13:45.922Z,8.20
2019-01-06T13:24:08.810Z,8.20
2019-01-06T13:34:30.655Z,8.20
2019-01-06T13:45:06.722Z,8.40
2019-01-06T13:55:41.871Z,8.40
2019-01-06T14:06:06.735Z,8.30
2019-01-06T14:16:28.459Z,8.20
2019-01-06T14:26:55.038Z,8.10
2019-01-06T14:37:14.098Z,8.00
2019-01-06T14:47:35.638Z,8.00
2019-01-06T14:57:53.389Z,8.00
2019-01-06T15:08:26.490Z,8.00
2019-01-06T15:18:44.406Z,8.00
2019-01-06T15:29:22.553Z,8.00
2019-01-06T15:39:57.098Z,8.00
2019-01-06T15:50:23.109Z,8.00
2019-01-06T16:01:00.969Z,8.00
2019-01-06T16:11:29.451Z,8.00
2019-01-06T16:21:55.116Z,8.00
2019-01-06T16:32:14.866Z,8.00
2019-01-06T16:42:38.826Z,8.10
2019-01-06T16:52:59.565Z,8.00
2019-01-06T17:03:21.198Z,7.90
2019-01-06T17:13:50.794Z,7.90
2019-01-06T17:24:13.454Z,7.90
2019-01-06T17:34:35.123Z,7.90
2019-01-06T17:44:56.747Z,7.90
2019-01-06T17:55:23.218Z,7.90
2019-01-06T18:05:39.567Z,7.90
2019-01-06T18:16:01.261Z,7.90
2019-01-06T18:26:27.139Z,7.90
2019-01-06T18:36:49.886Z,7.90
2019-01-06T18:47:28.481Z,7.80
2019-01-06T18:57:57.218Z,7.80
2019-01-06T19:08:19.894Z,7.80
2019-01-06T19:18:34.515Z,7.80
2019-01-06T19:28:48.746Z,7.80
2019-01-06T19:39:11.006Z,7.70
2019-01-06T19:49:28.408Z,7.70
2019-01-06T19:59:49.686Z,7.80
2019-01-06T20:10:20.426Z,7.80
2019-01-06T20:20:42.081Z,7.80
2019-01-06T20:31:03.651Z,7.80
2019-01-06T20:41:32.431Z,7.80
2019-01-06T20:51:51.007Z,7.90
2019-01-06T21:02:22.759Z,7.80
2019-01-06T21:12:45.198Z,7.80
2019-01-06T21:23:25.010Z,7.90
2019-01-06T21:33:43.193Z,8.00
2019-01-06T21:44:00.741Z,8.00
2019-01-06T21:54:27.562Z,8.00
2019-01-06T22:04:59.981Z,7.90
2019-01-06T22:15:28.845Z,7.90
2019-01-06T22:25:50.923Z,7.90
2019-01-06T22:36:16.390Z,7.90
2019-01-06T22:46:44.930Z,7.90
2019-01-06T22:57:16.918Z,7.90
2019-01-06T23:07:38.742Z,7.80
2019-01-06T23:18:07.743Z,7.80
2019-01-06T23:28:36.382Z,7.90
2019-01-06T23:38:57.757Z,7.90
2019-01-06T23:49:22.490Z,7.90
2019-01-06T23:59:48.511Z,7.80
